sensor_id;sensor_type;location;lat;lon;timestamp;P1;durP1;ratioP1;P2;durP2;ratioP2
33926;SDS011;20485;50.992;5.550;2022-12-18T05:24:39;42.17;;;15.27;;
33926;SDS011;20485;50.992;5.550;2022-12-18T05:27:06;39.72;;;15.23;;
33926;SDS011;20485;50.992;5.550;2022-12-18T05:29:32;39.75;;;15.55;;
33926;SDS011;20485;50.992;5.550;2022-12-18T05:31:58;35.58;;;15.00;;
33926;SDS011;20485;50.992;5.550;2022-12-18T05:34:24;42.90;;;16.67;;
33926;SDS011;20485;50.992;5.550;2022-12-18T05:36:50;44.28;;;17.02;;
33926;SDS011;20485;50.992;5.550;2022-12-18T05:39:15;36.42;;;15.35;;
33926;SDS011;20485;50.992;5.550;2022-12-18T05:53:38;35.10;;;14.73;;
33926;SDS011;20485;50.992;5.550;2022-12-18T05:56:04;33.72;;;15.20;;
33926;SDS011;20485;50.992;5.550;2022-12-18T05:58:31;38.75;;;14.65;;
33926;SDS011;20485;50.992;5.550;2022-12-18T06:00:57;39.53;;;15.25;;
33926;SDS011;20485;50.992;5.550;2022-12-18T06:03:30;38.25;;;15.65;;
33926;SDS011;20485;50.992;5.550;2022-12-18T06:05:56;46.08;;;15.43;;
33926;SDS011;20485;50.992;5.550;2022-12-18T06:08:21;33.30;;;15.45;;
33926;SDS011;20485;50.992;5.550;2022-12-18T06:10:50;42.67;;;15.55;;
33926;SDS011;20485;50.992;5.550;2022-12-18T06:13:20;37.85;;;16.48;;
33926;SDS011;20485;50.992;5.550;2022-12-18T06:15:45;44.28;;;15.68;;
33926;SDS011;20485;50.992;5.550;2022-12-18T06:18:11;45.30;;;16.48;;
33926;SDS011;20485;50.992;5.550;2022-12-18T06:20:37;35.40;;;14.77;;
33926;SDS011;20485;50.992;5.550;2022-12-18T06:23:04;36.78;;;14.70;;
33926;SDS011;20485;50.992;5.550;2022-12-18T06:25:31;38.15;;;15.75;;
33926;SDS011;20485;50.992;5.550;2022-12-18T06:27:57;41.05;;;15.07;;
33926;SDS011;20485;50.992;5.550;2022-12-18T06:30:23;48.13;;;15.93;;
33926;SDS011;20485;50.992;5.550;2022-12-18T06:32:49;36.13;;;14.80;;
33926;SDS011;20485;50.992;5.550;2022-12-18T06:35:15;37.60;;;15.05;;
33926;SDS011;20485;50.992;5.550;2022-12-18T06:37:40;43.38;;;16.17;;
33926;SDS011;20485;50.992;5.550;2022-12-18T06:40:06;54.47;;;18.17;;
33926;SDS011;20485;50.992;5.550;2022-12-18T06:42:32;36.33;;;16.05;;
33926;SDS011;20485;50.992;5.550;2022-12-18T06:44:58;48.47;;;17.25;;
33926;SDS011;20485;50.992;5.550;2022-12-18T06:47:24;38.70;;;16.10;;
33926;SDS011;20485;50.992;5.550;2022-12-18T06:49:50;43.30;;;17.00;;
33926;SDS011;20485;50.992;5.550;2022-12-18T06:52:16;41.70;;;17.23;;
33926;SDS011;20485;50.992;5.550;2022-12-18T06:54:41;48.88;;;17.92;;
33926;SDS011;20485;50.992;5.550;2022-12-18T06:57:07;48.25;;;18.38;;
33926;SDS011;20485;50.992;5.550;2022-12-18T06:59:33;48.78;;;18.42;;
33926;SDS011;20485;50.992;5.550;2022-12-18T07:01:58;52.25;;;18.48;;
33926;SDS011;20485;50.992;5.550;2022-12-18T07:04:30;46.78;;;18.70;;
33926;SDS011;20485;50.992;5.550;2022-12-18T07:06:56;44.45;;;18.98;;
33926;SDS011;20485;50.992;5.550;2022-12-18T07:09:22;41.92;;;17.00;;
33926;SDS011;20485;50.992;5.550;2022-12-18T07:11:48;43.00;;;18.38;;
33926;SDS011;20485;50.992;5.550;2022-12-18T07:14:14;46.97;;;18.55;;
33926;SDS011;20485;50.992;5.550;2022-12-18T07:16:40;34.67;;;16.80;;
33926;SDS011;20485;50.992;5.550;2022-12-18T07:19:05;41.13;;;16.27;;
33926;SDS011;20485;50.992;5.550;2022-12-18T07:21:31;44.72;;;15.70;;
33926;SDS011;20485;50.992;5.550;2022-12-18T07:23:57;33.88;;;15.35;;
33926;SDS011;20485;50.992;5.550;2022-12-18T07:26:22;32.72;;;15.20;;
33926;SDS011;20485;50.992;5.550;2022-12-18T07:28:48;36.42;;;14.10;;
33926;SDS011;20485;50.992;5.550;2022-12-18T07:31:19;30.38;;;13.45;;
33926;SDS011;20485;50.992;5.550;2022-12-18T07:33:46;36.80;;;15.35;;
33926;SDS011;20485;50.992;5.550;2022-12-18T07:36:12;37.67;;;15.48;;
33926;SDS011;20485;50.992;5.550;2022-12-18T07:38:38;33.13;;;12.65;;
33926;SDS011;20485;50.992;5.550;2022-12-18T07:41:04;28.88;;;13.00;;
33926;SDS011;20485;50.992;5.550;2022-12-18T07:43:35;33.22;;;13.80;;
33926;SDS011;20485;50.992;5.550;2022-12-18T07:46:01;29.20;;;11.68;;
33926;SDS011;20485;50.992;5.550;2022-12-18T07:48:27;32.03;;;13.88;;
33926;SDS011;20485;50.992;5.550;2022-12-18T07:50:57;32.75;;;13.50;;
33926;SDS011;20485;50.992;5.550;2022-12-18T07:53:24;28.50;;;12.63;;
33926;SDS011;20485;50.992;5.550;2022-12-18T07:55:54;28.75;;;12.40;;
33926;SDS011;20485;50.992;5.550;2022-12-18T07:58:21;27.40;;;12.15;;
33926;SDS011;20485;50.992;5.550;2022-12-18T08:00:46;30.40;;;13.55;;
33926;SDS011;20485;50.992;5.550;2022-12-18T08:03:12;30.52;;;12.98;;
33926;SDS011;20485;50.992;5.550;2022-12-18T08:05:37;34.53;;;12.60;;
33926;SDS011;20485;50.992;5.550;2022-12-18T08:08:04;32.50;;;12.77;;
33926;SDS011;20485;50.992;5.550;2022-12-18T08:10:30;29.52;;;12.88;;
33926;SDS011;20485;50.992;5.550;2022-12-18T08:12:55;33.75;;;13.07;;
33926;SDS011;20485;50.992;5.550;2022-12-18T08:15:21;36.63;;;13.05;;
33926;SDS011;20485;50.992;5.550;2022-12-18T08:17:47;29.42;;;12.40;;
33926;SDS011;20485;50.992;5.550;2022-12-18T08:20:13;29.48;;;12.40;;
33926;SDS011;20485;50.992;5.550;2022-12-18T08:22:43;31.55;;;13.20;;
33926;SDS011;20485;50.992;5.550;2022-12-18T08:25:09;27.33;;;13.13;;
33926;SDS011;20485;50.992;5.550;2022-12-18T08:27:35;34.90;;;14.20;;
33926;SDS011;20485;50.992;5.550;2022-12-18T08:30:01;34.78;;;14.60;;
33926;SDS011;20485;50.992;5.550;2022-12-18T08:32:27;32.50;;;12.98;;
33926;SDS011;20485;50.992;5.550;2022-12-18T08:34:54;34.13;;;13.25;;
33926;SDS011;20485;50.992;5.550;2022-12-18T08:37:20;38.47;;;16.20;;
33926;SDS011;20485;50.992;5.550;2022-12-18T08:39:45;38.67;;;13.88;;
33926;SDS011;20485;50.992;5.550;2022-12-18T08:42:11;32.00;;;13.68;;
33926;SDS011;20485;50.992;5.550;2022-12-18T08:44:55;38.03;;;14.38;;
33926;SDS011;20485;50.992;5.550;2022-12-18T08:47:20;37.63;;;14.07;;
33926;SDS011;20485;50.992;5.550;2022-12-18T08:49:46;38.05;;;14.35;;
33926;SDS011;20485;50.992;5.550;2022-12-18T08:52:12;35.22;;;13.98;;
33926;SDS011;20485;50.992;5.550;2022-12-18T08:54:37;34.40;;;14.55;;
33926;SDS011;20485;50.992;5.550;2022-12-18T08:57:03;35.90;;;15.98;;
33926;SDS011;20485;50.992;5.550;2022-12-18T08:59:29;42.47;;;16.05;;
33926;SDS011;20485;50.992;5.550;2022-12-18T09:01:54;52.40;;;17.42;;
33926;SDS011;20485;50.992;5.550;2022-12-18T09:04:20;35.60;;;15.70;;
33926;SDS011;20485;50.992;5.550;2022-12-18T09:06:46;39.00;;;16.30;;
33926;SDS011;20485;50.992;5.550;2022-12-18T09:09:12;32.17;;;14.32;;
33926;SDS011;20485;50.992;5.550;2022-12-18T09:11:38;38.38;;;16.83;;
33926;SDS011;20485;50.992;5.550;2022-12-18T09:14:04;43.40;;;16.42;;
33926;SDS011;20485;50.992;5.550;2022-12-18T09:16:29;31.00;;;13.75;;
33926;SDS011;20485;50.992;5.550;2022-12-18T09:18:57;33.42;;;15.10;;
33926;SDS011;20485;50.992;5.550;2022-12-18T09:21:27;37.80;;;15.65;;
33926;SDS011;20485;50.992;5.550;2022-12-18T09:23:56;32.03;;;14.68;;
33926;SDS011;20485;50.992;5.550;2022-12-18T09:26:22;39.97;;;16.15;;
33926;SDS011;20485;50.992;5.550;2022-12-18T09:28:49;42.17;;;16.13;;
33926;SDS011;20485;50.992;5.550;2022-12-18T09:31:15;32.20;;;16.85;;
33926;SDS011;20485;50.992;5.550;2022-12-18T09:33:41;30.95;;;15.50;;
33926;SDS011;20485;50.992;5.550;2022-12-18T09:36:08;41.33;;;16.02;;
33926;SDS011;20485;50.992;5.550;2022-12-18T09:38:35;38.00;;;15.55;;
33926;SDS011;20485;50.992;5.550;2022-12-18T09:44:00;31.65;;;14.70;;
33926;SDS011;20485;50.992;5.550;2022-12-18T09:46:40;30.73;;;14.70;;
33926;SDS011;20485;50.992;5.550;2022-12-18T09:49:12;34.10;;;15.20;;
33926;SDS011;20485;50.992;5.550;2022-12-18T09:51:49;34.28;;;14.70;;
33926;SDS011;20485;50.992;5.550;2022-12-18T09:55:03;28.08;;;13.52;;
33926;SDS011;20485;50.992;5.550;2022-12-18T09:57:15;34.20;;;14.80;;
33926;SDS011;20485;50.992;5.550;2022-12-18T09:59:46;29.05;;;14.48;;
33926;SDS011;20485;50.992;5.550;2022-12-18T10:02:20;38.17;;;15.05;;
33926;SDS011;20485;50.992;5.550;2022-12-18T10:07:49;34.80;;;14.82;;
33926;SDS011;20485;50.992;5.550;2022-12-18T10:13:17;33.65;;;15.77;;
33926;SDS011;20485;50.992;5.550;2022-12-18T10:21:19;41.00;;;15.95;;
33926;SDS011;20485;50.992;5.550;2022-12-18T10:26:22;31.40;;;16.02;;
33926;SDS011;20485;50.992;5.550;2022-12-18T10:28:49;36.90;;;16.00;;
33926;SDS011;20485;50.992;5.550;2022-12-18T10:31:20;38.38;;;15.90;;
33926;SDS011;20485;50.992;5.550;2022-12-18T10:33:47;41.17;;;15.82;;
33926;SDS011;20485;50.992;5.550;2022-12-18T10:36:13;37.17;;;16.17;;
33926;SDS011;20485;50.992;5.550;2022-12-18T10:38:39;44.70;;;17.17;;
33926;SDS011;20485;50.992;5.550;2022-12-18T10:41:06;35.50;;;16.67;;
33926;SDS011;20485;50.992;5.550;2022-12-18T10:46:55;36.63;;;16.75;;
33926;SDS011;20485;50.992;5.550;2022-12-18T10:49:30;39.20;;;16.30;;
33926;SDS011;20485;50.992;5.550;2022-12-18T10:52:06;35.22;;;16.67;;
33926;SDS011;20485;50.992;5.550;2022-12-18T10:54:39;44.78;;;17.40;;
33926;SDS011;20485;50.992;5.550;2022-12-18T10:57:17;40.65;;;17.52;;
33926;SDS011;20485;50.992;5.550;2022-12-18T10:59:57;41.15;;;17.70;;
33926;SDS011;20485;50.992;5.550;2022-12-18T11:02:42;44.47;;;18.27;;
33926;SDS011;20485;50.992;5.550;2022-12-18T11:05:27;41.97;;;18.80;;
33926;SDS011;20485;50.992;5.550;2022-12-18T11:07:56;48.28;;;18.52;;
33926;SDS011;20485;50.992;5.550;2022-12-18T11:10:28;40.00;;;17.80;;
33926;SDS011;20485;50.992;5.550;2022-12-18T11:13:09;43.78;;;18.70;;
33926;SDS011;20485;50.992;5.550;2022-12-18T11:15:37;42.75;;;18.92;;
33926;SDS011;20485;50.992;5.550;2022-12-18T11:18:14;42.60;;;18.90;;
33926;SDS011;20485;50.992;5.550;2022-12-18T11:21:07;43.28;;;20.17;;
33926;SDS011;20485;50.992;5.550;2022-12-18T11:23:36;43.97;;;18.90;;
33926;SDS011;20485;50.992;5.550;2022-12-18T11:26:08;42.47;;;18.42;;
33926;SDS011;20485;50.992;5.550;2022-12-18T11:28:38;43.92;;;18.05;;
33926;SDS011;20485;50.992;5.550;2022-12-18T11:31:12;42.40;;;19.52;;
33926;SDS011;20485;50.992;5.550;2022-12-18T11:33:51;43.50;;;18.80;;
33926;SDS011;20485;50.992;5.550;2022-12-18T11:36:20;46.72;;;18.08;;
33926;SDS011;20485;50.992;5.550;2022-12-18T11:38:47;39.67;;;17.70;;
33926;SDS011;20485;50.992;5.550;2022-12-18T11:41:29;41.85;;;18.35;;
33926;SDS011;20485;50.992;5.550;2022-12-18T11:44:24;44.22;;;18.98;;
33926;SDS011;20485;50.992;5.550;2022-12-18T11:47:55;43.35;;;19.13;;
33926;SDS011;20485;50.992;5.550;2022-12-18T11:50:17;39.50;;;18.40;;
33926;SDS011;20485;50.992;5.550;2022-12-18T11:52:48;40.63;;;18.83;;
33926;SDS011;20485;50.992;5.550;2022-12-18T11:55:15;41.63;;;18.38;;
33926;SDS011;20485;50.992;5.550;2022-12-18T12:00:41;48.20;;;19.98;;
33926;SDS011;20485;50.992;5.550;2022-12-18T12:06:19;39.38;;;19.00;;
33926;SDS011;20485;50.992;5.550;2022-12-18T12:08:53;37.92;;;17.73;;
33926;SDS011;20485;50.992;5.550;2022-12-18T12:20:23;44.45;;;20.23;;
33926;SDS011;20485;50.992;5.550;2022-12-18T12:26:07;44.70;;;18.67;;
33926;SDS011;20485;50.992;5.550;2022-12-18T12:34:26;42.90;;;19.15;;
33926;SDS011;20485;50.992;5.550;2022-12-18T12:37:18;47.42;;;18.85;;
33926;SDS011;20485;50.992;5.550;2022-12-18T12:40:04;42.30;;;19.15;;
33926;SDS011;20485;50.992;5.550;2022-12-18T12:42:34;43.08;;;19.25;;
33926;SDS011;20485;50.992;5.550;2022-12-18T12:45:36;42.40;;;20.20;;
33926;SDS011;20485;50.992;5.550;2022-12-18T12:48:13;46.92;;;20.30;;
33926;SDS011;20485;50.992;5.550;2022-12-18T12:50:42;44.10;;;19.63;;
33926;SDS011;20485;50.992;5.550;2022-12-18T12:53:11;47.15;;;20.70;;
33926;SDS011;20485;50.992;5.550;2022-12-18T12:55:46;46.30;;;21.00;;
33926;SDS011;20485;50.992;5.550;2022-12-18T12:58:18;46.35;;;20.00;;
33926;SDS011;20485;50.992;5.550;2022-12-18T13:03:56;43.33;;;20.83;;
33926;SDS011;20485;50.992;5.550;2022-12-18T13:18:30;108.45;;;52.30;;
33926;SDS011;20485;50.992;5.550;2022-12-18T13:25:51;56.38;;;30.77;;
33926;SDS011;20485;50.992;5.550;2022-12-18T13:34:19;46.33;;;21.25;;
33926;SDS011;20485;50.992;5.550;2022-12-18T13:36:49;51.13;;;23.63;;
33926;SDS011;20485;50.992;5.550;2022-12-18T13:41:46;44.72;;;22.65;;
33926;SDS011;20485;50.992;5.550;2022-12-18T13:44:55;44.40;;;20.65;;
33926;SDS011;20485;50.992;5.550;2022-12-18T13:47:30;44.03;;;21.20;;
33926;SDS011;20485;50.992;5.550;2022-12-18T13:49:58;48.83;;;21.58;;
33926;SDS011;20485;50.992;5.550;2022-12-18T13:52:26;42.83;;;19.80;;
33926;SDS011;20485;50.992;5.550;2022-12-18T13:55:02;51.88;;;22.35;;
33926;SDS011;20485;50.992;5.550;2022-12-18T13:57:36;43.22;;;21.02;;
33926;SDS011;20485;50.992;5.550;2022-12-18T14:02:53;47.65;;;21.63;;
33926;SDS011;20485;50.992;5.550;2022-12-18T14:05:29;48.40;;;22.45;;
33926;SDS011;20485;50.992;5.550;2022-12-18T14:08:07;44.70;;;19.73;;
33926;SDS011;20485;50.992;5.550;2022-12-18T14:10:39;53.00;;;23.95;;
33926;SDS011;20485;50.992;5.550;2022-12-18T14:13:07;53.33;;;24.58;;
33926;SDS011;20485;50.992;5.550;2022-12-18T14:15:36;63.33;;;28.83;;
33926;SDS011;20485;50.992;5.550;2022-12-18T14:20:41;54.85;;;24.50;;
33926;SDS011;20485;50.992;5.550;2022-12-18T14:25:56;49.25;;;24.35;;
33926;SDS011;20485;50.992;5.550;2022-12-18T14:28:22;50.60;;;22.33;;
33926;SDS011;20485;50.992;5.550;2022-12-18T14:30:48;43.50;;;22.45;;
33926;SDS011;20485;50.992;5.550;2022-12-18T14:33:16;47.45;;;22.73;;
33926;SDS011;20485;50.992;5.550;2022-12-18T14:36:04;60.75;;;23.88;;
33926;SDS011;20485;50.992;5.550;2022-12-18T14:38:38;41.28;;;21.23;;
33926;SDS011;20485;50.992;5.550;2022-12-18T14:41:12;48.05;;;22.20;;
33926;SDS011;20485;50.992;5.550;2022-12-18T14:43:40;46.60;;;21.23;;
33926;SDS011;20485;50.992;5.550;2022-12-18T14:49:30;50.00;;;22.83;;
33926;SDS011;20485;50.992;5.550;2022-12-18T14:52:04;54.10;;;22.92;;
33926;SDS011;20485;50.992;5.550;2022-12-18T14:54:32;51.10;;;23.95;;
33926;SDS011;20485;50.992;5.550;2022-12-18T14:57:01;53.05;;;22.58;;
33926;SDS011;20485;50.992;5.550;2022-12-18T14:59:40;43.33;;;21.98;;
33926;SDS011;20485;50.992;5.550;2022-12-18T15:05:00;56.72;;;23.42;;
33926;SDS011;20485;50.992;5.550;2022-12-18T15:07:39;51.50;;;23.58;;
33926;SDS011;20485;50.992;5.550;2022-12-18T15:10:12;52.58;;;23.50;;
33926;SDS011;20485;50.992;5.550;2022-12-18T15:12:39;54.85;;;23.67;;
33926;SDS011;20485;50.992;5.550;2022-12-18T15:20:52;46.75;;;23.45;;
33926;SDS011;20485;50.992;5.550;2022-12-18T15:25:46;52.40;;;23.02;;
33926;SDS011;20485;50.992;5.550;2022-12-18T15:28:26;46.60;;;23.33;;
33926;SDS011;20485;50.992;5.550;2022-12-18T15:33:29;53.05;;;22.38;;
33926;SDS011;20485;50.992;5.550;2022-12-18T15:35:58;51.38;;;22.95;;
33926;SDS011;20485;50.992;5.550;2022-12-18T15:38:25;51.50;;;22.92;;
33926;SDS011;20485;50.992;5.550;2022-12-18T15:40:52;49.80;;;23.00;;
33926;SDS011;20485;50.992;5.550;2022-12-18T15:43:20;47.42;;;21.95;;
33926;SDS011;20485;50.992;5.550;2022-12-18T15:46:05;49.20;;;22.52;;
33926;SDS011;20485;50.992;5.550;2022-12-18T15:48:48;54.83;;;22.98;;
33926;SDS011;20485;50.992;5.550;2022-12-18T15:51:23;44.58;;;22.38;;
33926;SDS011;20485;50.992;5.550;2022-12-18T15:53:52;49.72;;;22.52;;
33926;SDS011;20485;50.992;5.550;2022-12-18T15:56:24;52.92;;;22.20;;
33926;SDS011;20485;50.992;5.550;2022-12-18T15:59:09;51.67;;;22.98;;
33926;SDS011;20485;50.992;5.550;2022-12-18T16:01:37;51.67;;;23.35;;
33926;SDS011;20485;50.992;5.550;2022-12-18T16:04:03;47.92;;;23.00;;
33926;SDS011;20485;50.992;5.550;2022-12-18T16:06:28;53.72;;;22.35;;
